Time;durP1;ratioP1;P1;durP2;ratioP2;P2;SDS_P1;SDS_P2;PMS_P1;PMS_P2;Temp;Humidity;BMP_temperature;BMP_pressure;BME280_temperature;BME280_humidity;BME280_pressure;Samples;Min_cycle;Max_cycle;Signal;HPM_P1;HPM_P2
2023/11/26 00:02:21;;;;;;;14.93;9.10;;;15.40;54.70;;;;;;5036206;28;20494;-79
2023/11/26 00:04:49;;;;;;;19.33;10.27;;;15.40;54.80;;;;;;5039127;28;20446;-78
2023/11/26 00:07:17;;;;;;;11.10;8.00;;;15.40;54.80;;;;;;5024974;28;20515;-77
2023/11/26 00:09:45;;;;;;;13.70;9.17;;;15.40;54.90;;;;;;5033009;28;20470;-77
2023/11/26 00:12:13;;;;;;;15.47;9.00;;;15.40;54.90;;;;;;5041975;28;20478;-79
2023/11/26 00:14:43;;;;;;;17.70;9.20;;;15.40;54.90;;;;;;5036421;28;20493;-78
2023/11/26 00:17:11;;;;;;;19.03;9.53;;;15.40;54.90;;;;;;5036154;28;20489;-78
2023/11/26 00:19:40;;;;;;;15.00;9.83;;;15.40;55.00;;;;;;5034285;28;20444;-78
2023/11/26 00:22:09;;;;;;;12.10;8.37;;;15.40;54.90;;;;;;5034347;28;20478;-78
2023/11/26 00:24:37;;;;;;;15.00;9.30;;;15.40;55.00;;;;;;5028048;28;20464;-81
2023/11/26 00:27:05;;;;;;;16.10;9.30;;;15.40;55.20;;;;;;5026277;28;20464;-79
2023/11/26 00:29:40;;;;;;;16.27;8.63;;;15.40;55.10;;;;;;5031231;28;20972;-77
2023/11/26 00:32:09;;;;;;;16.10;9.40;;;15.40;55.20;;;;;;5021113;28;20462;-78
2023/11/26 00:34:37;;;;;;;13.03;8.40;;;15.40;55.10;;;;;;5034429;28;20439;-77
2023/11/26 00:37:05;;;;;;;14.60;9.30;;;15.40;55.20;;;;;;5036722;28;20443;-80
2023/11/26 00:39:33;;;;;;;15.93;10.00;;;15.30;55.20;;;;;;5040663;28;20436;-77
2023/11/26 00:42:01;;;;;;;18.33;8.30;;;15.40;55.20;;;;;;5027453;28;20974;-78
2023/11/26 00:44:29;;;;;;;15.73;9.03;;;15.30;55.20;;;;;;5029531;28;20478;-79
2023/11/26 00:46:57;;;;;;;15.10;9.40;;;15.30;55.20;;;;;;5037604;28;20444;-79
2023/11/26 00:49:26;;;;;;;13.10;8.63;;;15.30;55.30;;;;;;5030438;28;20503;-77
2023/11/26 00:51:54;;;;;;;16.20;9.03;;;15.30;55.20;;;;;;5034620;28;20475;-77
2023/11/26 00:54:22;;;;;;;15.17;9.13;;;15.30;55.30;;;;;;5034811;28;20490;-78
2023/11/26 00:56:50;;;;;;;16.70;9.10;;;15.20;55.40;;;;;;5028542;28;20498;-78
2023/11/26 00:59:19;;;;;;;22.73;13.40;;;15.20;55.30;;;;;;5018615;28;20490;-77
2023/11/26 01:01:47;;;;;;;23.87;14.17;;;15.20;55.30;;;;;;5031172;28;20530;-78
2023/11/26 01:04:16;;;;;;;28.93;16.10;;;15.20;55.30;;;;;;5031307;28;21077;-78
2023/11/26 01:06:45;;;;;;;31.27;17.10;;;15.20;55.30;;;;;;5030130;28;20451;-78
2023/11/26 01:09:13;;;;;;;31.00;17.50;;;15.20;55.20;;;;;;5037317;28;20574;-79
2023/11/26 01:11:42;;;;;;;33.50;19.00;;;15.20;55.30;;;;;;5033110;28;20482;-78
2023/11/26 01:14:10;;;;;;;36.93;20.27;;;15.20;55.40;;;;;;5030898;28;20447;-78
2023/11/26 01:16:38;;;;;;;37.03;21.20;;;15.20;55.30;;;;;;5021751;28;20432;-78
2023/11/26 01:19:06;;;;;;;33.87;19.20;;;15.10;55.20;;;;;;5033338;28;20459;-77
2023/11/26 01:21:34;;;;;;;37.57;21.17;;;15.10;55.20;;;;;;5025158;28;20494;-78
2023/11/26 01:24:05;;;;;;;37.20;20.70;;;15.10;55.20;;;;;;5025268;28;20556;-78
2023/11/26 01:26:37;;;;;;;41.07;22.37;;;15.10;55.10;;;;;;5033513;28;20448;-78
2023/11/26 01:29:05;;;;;;;44.80;22.73;;;15.00;55.20;;;;;;5031640;28;20503;-75
2023/11/26 01:31:32;;;;;;;41.13;22.67;;;15.00;55.10;;;;;;5028352;28;20462;-79
2023/11/26 01:34:00;;;;;;;40.10;22.87;;;15.00;55.00;;;;;;5034568;28;20542;-78
2023/11/26 01:36:28;;;;;;;46.57;23.50;;;15.00;55.10;;;;;;5024694;28;20479;-78
2023/11/26 01:38:56;;;;;;;39.80;23.20;;;15.00;55.00;;;;;;5029304;28;20495;-79
2023/11/26 01:41:25;;;;;;;44.00;22.60;;;15.00;55.00;;;;;;5035037;28;20450;-79
2023/11/26 01:43:53;;;;;;;42.00;23.43;;;15.00;55.00;;;;;;5025811;28;21154;-79
2023/11/26 01:46:22;;;;;;;41.20;23.60;;;14.90;55.00;;;;;;5036474;28;20435;-80
2023/11/26 01:48:50;;;;;;;39.80;21.93;;;14.90;54.80;;;;;;5030321;28;20472;-78
2023/11/26 01:51:17;;;;;;;40.70;23.13;;;14.90;54.70;;;;;;5023335;28;20481;-78
2023/11/26 01:53:47;;;;;;;43.63;24.10;;;14.90;54.80;;;;;;5029142;28;20451;-77
2023/11/26 01:56:16;;;;;;;42.40;22.57;;;14.90;54.80;;;;;;5025490;28;20463;-78
2023/11/26 01:58:46;;;;;;;40.80;22.00;;;14.90;54.90;;;;;;5022299;28;20455;-78
2023/11/26 02:01:15;;;;;;;39.87;21.90;;;14.90;54.80;;;;;;5035415;28;20443;-78
2023/11/26 02:03:43;;;;;;;35.97;21.17;;;14.90;54.70;;;;;;5036772;28;20444;-78
2023/11/26 02:06:11;;;;;;;36.87;21.27;;;14.90;54.70;;;;;;5017317;28;20515;-78
2023/11/26 02:08:39;;;;;;;33.47;20.07;;;14.90;54.80;;;;;;5026645;28;20920;-78
2023/11/26 02:11:07;;;;;;;37.50;21.40;;;14.80;54.80;;;;;;5022164;28;20476;-79
2023/11/26 02:13:45;;;;;;;36.00;20.50;;;14.80;54.70;;;;;;5028234;28;20444;-78
2023/11/26 02:16:14;;;;;;;38.70;22.00;;;14.90;54.80;;;;;;5034945;28;20435;-78
2023/11/26 02:18:42;;;;;;;34.77;19.50;;;14.80;54.80;;;;;;5026006;28;20474;-78
2023/11/26 02:21:11;;;;;;;33.60;18.87;;;14.90;54.80;;;;;;5035211;28;20440;-79
2023/11/26 02:23:39;;;;;;;35.27;19.20;;;14.80;54.70;;;;;;5036920;28;20460;-78
2023/11/26 02:26:10;;;;;;;33.30;18.67;;;14.80;54.80;;;;;;5036630;28;20530;-78
2023/11/26 02:28:41;;;;;;;32.30;18.57;;;14.90;54.80;;;;;;5029846;28;20471;-78
2023/11/26 02:31:11;;;;;;;30.50;18.10;;;14.80;54.80;;;;;;5027465;28;20539;-79
2023/11/26 02:33:39;;;;;;;33.97;18.13;;;14.80;54.80;;;;;;5029620;28;20443;-79
2023/11/26 02:36:25;;;;;;;30.40;17.33;;;14.80;54.70;;;;;;5028379;28;20442;-79
2023/11/26 02:38:53;;;;;;;32.70;17.93;;;14.80;54.90;;;;;;5035657;28;20448;-78
2023/11/26 02:41:24;;;;;;;29.47;17.03;;;14.80;54.90;;;;;;5035425;28;20436;-78
2023/11/26 02:43:53;;;;;;;28.43;16.23;;;14.80;54.90;;;;;;5034739;28;20463;-78
2023/11/26 02:46:21;;;;;;;28.93;16.60;;;14.70;54.80;;;;;;5026147;28;20437;-78
2023/11/26 02:48:49;;;;;;;30.00;16.50;;;14.70;54.80;;;;;;5032780;28;20507;-78
2023/11/26 02:51:18;;;;;;;25.30;14.90;;;14.70;54.70;;;;;;5026498;28;20439;-77
2023/11/26 02:53:46;;;;;;;25.03;15.33;;;14.70;54.90;;;;;;5024139;28;20428;-77
2023/11/26 02:56:14;;;;;;;28.80;15.90;;;14.70;54.80;;;;;;5022656;28;20451;-77
2023/11/26 02:58:44;;;;;;;25.17;14.97;;;14.70;54.60;;;;;;5023489;28;20468;-78
2023/11/26 03:01:17;;;;;;;26.33;15.00;;;14.70;54.80;;;;;;5016984;28;20452;-77
2023/11/26 03:03:47;;;;;;;28.33;14.20;;;14.70;54.90;;;;;;5048470;28;20418;-78
2023/11/26 03:06:15;;;;;;;24.03;14.30;;;14.70;54.90;;;;;;5057805;28;20427;-78
2023/11/26 03:08:44;;;;;;;27.83;15.10;;;14.70;54.80;;;;;;5050281;28;20467;-77
2023/11/26 03:13:59;;;;;;;21.00;13.10;;;14.70;54.90;;;;;;5038689;28;20436;-78
2023/11/26 03:16:27;;;;;;;22.67;12.83;;;14.70;54.90;;;;;;5032687;28;20459;-78
2023/11/26 03:18:55;;;;;;;23.70;14.07;;;14.70;55.70;;;;;;5021913;28;20531;-78
2023/11/26 03:21:28;;;;;;;20.93;12.87;;;14.70;55.00;;;;;;5032551;28;20450;-77
2023/11/26 03:23:56;;;;;;;23.70;12.40;;;14.70;55.20;;;;;;5027981;28;20452;-78
2023/11/26 03:26:26;;;;;;;21.27;12.67;;;14.70;55.30;;;;;;5030727;28;20479;-78
2023/11/26 03:28:55;;;;;;;22.17;12.47;;;14.70;55.30;;;;;;5030542;28;20471;-78
2023/11/26 03:31:26;;;;;;;21.23;12.37;;;14.70;55.20;;;;;;5031696;28;20515;-77
2023/11/26 03:33:54;;;;;;;19.60;12.43;;;14.70;55.20;;;;;;5033928;28;20439;-77
2023/11/26 03:36:22;;;;;;;18.37;11.90;;;14.70;55.30;;;;;;5025816;28;20443;-77
2023/11/26 03:38:50;;;;;;;18.10;11.30;;;14.70;55.30;;;;;;5023051;28;20487;-78
2023/11/26 03:41:18;;;;;;;19.37;11.37;;;14.70;55.40;;;;;;5022197;28;20495;-77
2023/11/26 03:43:46;;;;;;;17.73;10.83;;;14.70;55.50;;;;;;5033024;28;20440;-77
2023/11/26 03:46:14;;;;;;;17.10;11.00;;;14.80;55.60;;;;;;5035762;28;20530;-78
2023/11/26 03:48:45;;;;;;;17.60;11.50;;;14.70;55.60;;;;;;5031569;28;20455;-77
2023/11/26 03:51:17;;;;;;;15.97;10.27;;;14.70;55.60;;;;;;5038268;28;20475;-78
2023/11/26 03:53:45;;;;;;;16.07;10.70;;;14.70;55.70;;;;;;5026595;28;20491;-77
2023/11/26 03:56:13;;;;;;;17.43;10.80;;;14.70;55.60;;;;;;5024413;28;20494;-77
2023/11/26 03:58:41;;;;;;;17.30;10.53;;;14.70;56.30;;;;;;5035958;28;20517;-77
2023/11/26 04:01:09;;;;;;;18.83;9.93;;;14.80;55.80;;;;;;5026989;28;20520;-77
2023/11/26 04:03:37;;;;;;;15.00;9.80;;;14.70;55.80;;;;;;5027601;28;20446;-77
2023/11/26 04:06:07;;;;;;;14.37;9.53;;;14.70;55.90;;;;;;5029512;28;20579;-78
2023/11/26 04:08:35;;;;;;;12.90;8.57;;;14.70;55.80;;;;;;5026863;28;20495;-78
2023/11/26 04:11:03;;;;;;;13.70;9.20;;;14.70;55.90;;;;;;5027852;28;21015;-77
2023/11/26 04:13:31;;;;;;;13.63;8.53;;;14.70;55.90;;;;;;5035640;28;20435;-77
2023/11/26 04:15:59;;;;;;;13.60;8.90;;;14.70;56.00;;;;;;5027712;28;20914;-78
2023/11/26 04:18:27;;;;;;;14.70;9.57;;;14.80;56.10;;;;;;5036189;28;20490;-78
2023/11/26 04:20:56;;;;;;;13.53;8.70;;;14.80;56.00;;;;;;5035273;28;20440;-77
2023/11/26 04:23:26;;;;;;;14.73;9.43;;;14.70;56.00;;;;;;5024977;28;20471;-77
2023/11/26 04:25:53;;;;;;;12.00;8.53;;;14.70;56.00;;;;;;5030167;28;20442;-77
2023/11/26 04:28:21;;;;;;;15.67;8.40;;;14.70;56.10;;;;;;5026280;28;20467;-77
2023/11/26 04:30:49;;;;;;;14.13;7.37;;;14.70;56.10;;;;;;5032947;28;20495;-77
2023/11/26 04:33:18;;;;;;;11.83;8.13;;;14.70;56.10;;;;;;5024540;28;20452;-77
2023/11/26 04:35:47;;;;;;;11.97;7.70;;;14.70;56.30;;;;;;5035760;28;20538;-77
2023/11/26 04:38:15;;;;;;;10.17;7.50;;;14.70;56.10;;;;;;5035735;28;20474;-77
2023/11/26 04:40:45;;;;;;;13.93;8.73;;;14.70;56.30;;;;;;5023096;28;20428;-77
2023/11/26 04:43:13;;;;;;;10.43;7.33;;;14.80;56.40;;;;;;5023488;28;20478;-77
2023/11/26 04:45:42;;;;;;;10.10;7.43;;;14.70;56.30;;;;;;5028669;28;20467;-77
2023/11/26 04:48:10;;;;;;;9.60;7.40;;;14.70;56.40;;;;;;5033648;28;20486;-77
2023/11/26 04:50:39;;;;;;;12.17;7.77;;;14.80;56.40;;;;;;5034933;28;20470;-77
2023/11/26 04:53:07;;;;;;;9.63;7.00;;;14.70;56.30;;;;;;5028276;28;20463;-77
2023/11/26 04:55:35;;;;;;;12.40;7.20;;;14.70;56.40;;;;;;5033425;28;20478;-77
2023/11/26 04:58:04;;;;;;;9.30;6.50;;;14.70;56.50;;;;;;5028503;28;20548;-77
2023/11/26 05:00:32;;;;;;;10.90;6.87;;;14.70;56.30;;;;;;5023218;28;20536;-77
2023/11/26 05:03:02;;;;;;;9.90;7.00;;;14.70;56.40;;;;;;5022521;28;20510;-77
2023/11/26 05:05:31;;;;;;;11.63;6.53;;;14.80;56.40;;;;;;5032956;28;20831;-77
2023/11/26 05:08:01;;;;;;;8.60;6.30;;;14.70;56.40;;;;;;5026700;28;20463;-76
2023/11/26 05:10:29;;;;;;;10.50;6.80;;;14.70;56.40;;;;;;5031803;28;20514;-78
2023/11/26 05:12:57;;;;;;;10.60;6.80;;;14.70;56.50;;;;;;5035031;28;20530;-77
2023/11/26 05:15:28;;;;;;;11.90;6.30;;;14.70;56.60;;;;;;5034954;28;20443;-77
2023/11/26 05:17:56;;;;;;;8.77;6.30;;;14.70;56.50;;;;;;5029063;28;20471;-77
2023/11/26 05:20:24;;;;;;;7.30;5.53;;;14.70;56.50;;;;;;5032988;28;20454;-77
2023/11/26 05:22:53;;;;;;;10.00;6.20;;;14.70;56.40;;;;;;5031455;28;20448;-78
2023/11/26 05:25:21;;;;;;;8.80;6.03;;;14.70;56.60;;;;;;5032937;28;20539;-78
2023/11/26 05:27:49;;;;;;;8.10;5.80;;;14.70;56.50;;;;;;5027047;28;20522;-78
2023/11/26 05:30:18;;;;;;;8.40;5.80;;;14.70;56.60;;;;;;5027749;28;20484;-78
2023/11/26 05:32:47;;;;;;;9.03;5.57;;;14.70;56.40;;;;;;5027941;28;20550;-78
2023/11/26 05:35:15;;;;;;;7.57;5.47;;;14.70;56.50;;;;;;5028234;28;20443;-78
2023/11/26 05:37:43;;;;;;;8.10;5.53;;;14.70;56.50;;;;;;5027882;28;20474;-78
2023/11/26 05:40:13;;;;;;;7.30;5.10;;;14.70;56.60;;;;;;5029003;28;20456;-78
2023/11/26 05:42:41;;;;;;;6.87;4.87;;;14.70;56.50;;;;;;5028180;28;20452;-78
2023/11/26 05:45:10;;;;;;;11.43;5.20;;;14.70;56.50;;;;;;5035635;28;20451;-77
2023/11/26 05:47:38;;;;;;;8.60;5.03;;;14.70;56.60;;;;;;5025906;28;20507;-78
2023/11/26 05:50:08;;;;;;;8.07;5.33;;;14.70;56.50;;;;;;5021163;28;20489;-78
2023/11/26 05:52:36;;;;;;;8.00;5.23;;;14.70;56.60;;;;;;5016455;28;20448;-78
2023/11/26 05:55:06;;;;;;;7.00;5.20;;;14.70;56.70;;;;;;5026594;28;20436;-78
2023/11/26 05:57:34;;;;;;;7.93;5.17;;;14.70;56.60;;;;;;5025734;28;21033;-78
2023/11/26 06:00:03;;;;;;;6.47;4.77;;;14.70;56.60;;;;;;5016113;28;20498;-77
2023/11/26 06:02:31;;;;;;;10.07;5.17;;;14.70;56.70;;;;;;5032127;28;20467;-77
2023/11/26 06:04:59;;;;;;;8.27;5.40;;;14.60;56.70;;;;;;5031152;28;20487;-78
2023/11/26 06:07:29;;;;;;;5.40;4.17;;;14.70;56.70;;;;;;5017005;28;20495;-77
2023/11/26 06:09:57;;;;;;;4.83;4.00;;;14.70;56.80;;;;;;5026818;28;20475;-77
2023/11/26 06:12:25;;;;;;;6.17;4.73;;;14.70;56.80;;;;;;5040980;28;20533;-77
2023/11/26 06:14:53;;;;;;;4.47;3.97;;;14.70;56.80;;;;;;5037290;28;20493;-78
2023/11/26 06:17:21;;;;;;;6.43;4.40;;;14.70;56.80;;;;;;5032559;28;20507;-77
2023/11/26 06:19:49;;;;;;;4.20;3.80;;;14.60;56.90;;;;;;5036129;28;20534;-77
2023/11/26 06:22:17;;;;;;;6.80;4.37;;;14.70;56.90;;;;;;5033565;28;20523;-77
2023/11/26 06:24:46;;;;;;;5.17;4.30;;;14.60;56.80;;;;;;5025165;28;20463;-77
2023/11/26 06:27:15;;;;;;;5.90;4.70;;;14.70;56.90;;;;;;5019612;28;20443;-77
2023/11/26 06:29:42;;;;;;;6.03;4.53;;;14.70;56.80;;;;;;5020882;28;20435;-77
2023/11/26 06:32:11;;;;;;;5.90;4.40;;;14.70;56.80;;;;;;5027035;28;20542;-77
2023/11/26 06:34:39;;;;;;;7.00;4.00;;;14.60;56.70;;;;;;5023669;28;20440;-77
2023/11/26 06:37:07;;;;;;;5.50;4.53;;;14.60;56.80;;;;;;5022655;28;20494;-77
2023/11/26 06:39:35;;;;;;;5.77;4.13;;;14.60;56.80;;;;;;5018278;28;20511;-77
2023/11/26 06:42:05;;;;;;;5.87;4.30;;;14.60;56.70;;;;;;5014062;28;20437;-77
2023/11/26 06:44:32;;;;;;;4.57;4.13;;;14.60;56.60;;;;;;5015212;28;20512;-76
2023/11/26 06:47:01;;;;;;;4.67;4.07;;;14.60;56.60;;;;;;5032620;28;20428;-77
2023/11/26 06:49:29;;;;;;;5.50;3.73;;;14.60;56.70;;;;;;5017362;28;20436;-77
2023/11/26 06:51:57;;;;;;;6.43;3.93;;;14.60;56.60;;;;;;5032879;28;20541;-77
2023/11/26 06:54:24;;;;;;;7.70;4.20;;;14.60;56.70;;;;;;5032079;28;20523;-77
2023/11/26 06:56:52;;;;;;;7.70;4.47;;;14.60;56.60;;;;;;5033060;28;20470;-77
2023/11/26 06:59:22;;;;;;;5.30;3.63;;;14.60;56.70;;;;;;5026122;28;20591;-77
2023/11/26 07:01:50;;;;;;;5.87;3.60;;;14.60;56.50;;;;;;5032680;28;20443;-77
2023/11/26 07:04:18;;;;;;;4.40;3.50;;;14.60;56.60;;;;;;5032759;28;20450;-78
2023/11/26 07:06:47;;;;;;;4.43;3.97;;;14.60;56.60;;;;;;5030656;28;20440;-78
2023/11/26 07:09:15;;;;;;;6.87;4.10;;;14.50;56.50;;;;;;5026752;28;20471;-76
2023/11/26 07:11:45;;;;;;;4.83;4.17;;;14.60;56.60;;;;;;5027766;28;20480;-77
2023/11/26 07:14:13;;;;;;;6.40;4.10;;;14.60;56.60;;;;;;5035116;28;20443;-78
2023/11/26 07:16:43;;;;;;;4.20;3.80;;;14.50;56.60;;;;;;5036109;28;20551;-78
2023/11/26 07:19:11;;;;;;;4.60;4.07;;;14.50;56.50;;;;;;5030754;28;20503;-78
2023/11/26 07:21:42;;;;;;;4.03;3.53;;;14.50;56.60;;;;;;5031563;28;20436;-77
2023/11/26 07:24:10;;;;;;;3.20;2.90;;;14.50;56.60;;;;;;5017189;28;20467;-77
2023/11/26 07:26:38;;;;;;;5.60;3.80;;;14.50;56.60;;;;;;5025563;28;20439;-77
2023/11/26 07:29:06;;;;;;;4.70;3.70;;;14.60;56.70;;;;;;5027708;28;20489;-78
2023/11/26 07:31:35;;;;;;;5.30;3.70;;;14.60;56.70;;;;;;5029029;28;20561;-77
2023/11/26 07:34:05;;;;;;;3.63;3.33;;;14.60;56.60;;;;;;5025332;28;20504;-77
2023/11/26 07:36:33;;;;;;;3.70;3.40;;;14.60;56.70;;;;;;5030914;28;20458;-77
2023/11/26 07:39:01;;;;;;;3.67;3.30;;;14.60;56.70;;;;;;5031002;28;20464;-77
2023/11/26 07:41:29;;;;;;;5.40;3.77;;;14.60;56.60;;;;;;5023255;28;20475;-77
2023/11/26 07:43:57;;;;;;;5.90;3.77;;;14.60;56.60;;;;;;5017218;28;20543;-78
2023/11/26 07:46:25;;;;;;;4.23;3.40;;;14.60;56.70;;;;;;5020761;28;20436;-77
2023/11/26 07:48:53;;;;;;;3.93;3.30;;;14.60;56.70;;;;;;5028419;28;20530;-77
2023/11/26 07:51:24;;;;;;;4.70;3.30;;;14.70;56.70;;;;;;5046448;23;20490;-73
2023/11/26 07:53:52;;;;;;;8.40;3.80;;;14.70;56.70;;;;;;5049218;28;20441;-74
2023/11/26 07:56:21;;;;;;;3.80;3.50;;;14.70;56.80;;;;;;5052360;28;20477;-75
2023/11/26 07:58:49;;;;;;;4.40;3.00;;;14.70;56.80;;;;;;5053226;28;20438;-75
2023/11/26 08:01:18;;;;;;;3.27;2.93;;;14.70;56.70;;;;;;5047874;28;20467;-75
2023/11/26 08:03:46;;;;;;;5.50;3.47;;;14.70;56.80;;;;;;5033078;28;20450;-74
2023/11/26 08:06:15;;;;;;;3.50;3.20;;;14.70;56.80;;;;;;5032379;28;20443;-75
2023/11/26 08:08:44;;;;;;;3.87;3.47;;;14.70;56.90;;;;;;5032226;28;20450;-75
2023/11/26 08:11:13;;;;;;;3.30;3.00;;;14.70;57.00;;;;;;5031830;28;20472;-75
2023/11/26 08:13:41;;;;;;;3.60;3.30;;;14.70;56.90;;;;;;5031605;28;20487;-75
2023/11/26 08:16:13;;;;;;;3.50;3.20;;;14.70;57.00;;;;;;5031643;28;20443;-75
2023/11/26 08:18:42;;;;;;;3.20;2.90;;;14.70;57.00;;;;;;5031875;28;20534;-75
2023/11/26 08:21:10;;;;;;;3.10;2.80;;;14.70;57.00;;;;;;5031815;28;20474;-76
2023/11/26 08:23:41;;;;;;;3.80;3.17;;;14.80;57.10;;;;;;5027702;28;20507;-75
2023/11/26 08:26:10;;;;;;;3.00;2.70;;;14.80;57.10;;;;;;5032810;28;20515;-75
2023/11/26 08:28:42;;;;;;;3.03;2.83;;;14.80;57.20;;;;;;5032712;28;20474;-75
2023/11/26 08:31:11;;;;;;;3.37;3.03;;;14.80;57.30;;;;;;5034407;28;20455;-75
2023/11/26 08:33:42;;;;;;;3.83;3.40;;;14.80;57.10;;;;;;5036391;28;20559;-75
2023/11/26 08:36:15;;;;;;;2.90;2.70;;;14.90;57.20;;;;;;5040446;28;20572;-76
2023/11/26 08:38:46;;;;;;;3.17;2.87;;;14.90;57.30;;;;;;5037000;28;20424;-75
2023/11/26 08:41:20;;;;;;;3.30;3.00;;;14.90;57.40;;;;;;5035457;28;20459;-75
2023/11/26 08:43:50;;;;;;;4.13;3.30;;;14.90;57.30;;;;;;5035177;28;20431;-75
2023/11/26 08:46:21;;;;;;;2.80;2.60;;;14.90;57.30;;;;;;5034847;28;20534;-75
2023/11/26 08:48:52;;;;;;;5.13;3.47;;;14.90;57.30;;;;;;5035641;28;20439;-74
2023/11/26 08:51:20;;;;;;;3.20;2.97;;;14.90;57.50;;;;;;5034992;28;20502;-76
2023/11/26 08:53:49;;;;;;;4.00;3.10;;;15.00;57.50;;;;;;5035401;28;20474;-75
2023/11/26 08:56:20;;;;;;;3.73;3.10;;;15.00;57.40;;;;;;5035185;28;20478;-75
2023/11/26 08:58:48;;;;;;;4.20;3.20;;;15.00;57.50;;;;;;5035812;28;20443;-75
2023/11/26 09:01:17;;;;;;;3.87;2.70;;;15.10;57.60;;;;;;5035260;28;20475;-75
2023/11/26 09:03:45;;;;;;;2.90;2.43;;;15.10;57.60;;;;;;5035200;28;20452;-75
2023/11/26 09:06:14;;;;;;;3.50;3.17;;;15.10;57.60;;;;;;5034930;28;20451;-74
2023/11/26 09:08:41;;;;;;;3.03;2.73;;;15.10;57.70;;;;;;5035294;28;20446;-74
2023/11/26 09:11:10;;;;;;;3.10;2.80;;;15.20;57.80;;;;;;5034651;28;20498;-75
2023/11/26 09:13:39;;;;;;;3.00;2.80;;;15.20;57.70;;;;;;5033902;28;20543;-75
2023/11/26 09:16:08;;;;;;;5.43;2.77;;;15.20;57.70;;;;;;5034152;28;20451;-75
2023/11/26 09:18:37;;;;;;;3.50;2.60;;;15.20;57.90;;;;;;5034306;28;20498;-76
2023/11/26 09:21:05;;;;;;;2.67;2.47;;;15.20;58.00;;;;;;5034163;28;21056;-75
2023/11/26 09:23:34;;;;;;;3.63;2.53;;;15.30;57.90;;;;;;5034444;28;20527;-75
2023/11/26 09:26:02;;;;;;;3.43;2.47;;;15.40;58.00;;;;;;5029868;28;20459;-73
2023/11/26 09:28:31;;;;;;;3.47;2.90;;;15.40;58.00;;;;;;5034804;28;20447;-74
2023/11/26 09:31:03;;;;;;;2.77;2.57;;;15.50;58.00;;;;;;5034771;28;20470;-75
2023/11/26 09:33:31;;;;;;;2.97;2.50;;;15.60;58.20;;;;;;5034457;28;20559;-75
2023/11/26 09:36:00;;;;;;;2.73;2.53;;;15.70;58.20;;;;;;5034622;28;20938;-75
2023/11/26 09:38:27;;;;;;;3.57;2.93;;;15.80;58.50;;;;;;5034312;28;20494;-75
2023/11/26 09:40:55;;;;;;;2.87;2.57;;;16.00;58.80;;;;;;5033888;28;20483;-75
2023/11/26 09:43:24;;;;;;;3.10;2.90;;;16.20;58.90;;;;;;5034027;28;20467;-75
2023/11/26 09:45:52;;;;;;;3.27;2.57;;;16.50;59.20;;;;;;5033929;28;20527;-74
2023/11/26 09:48:21;;;;;;;3.10;2.80;;;16.80;59.40;;;;;;5034533;28;20431;-76
2023/11/26 09:50:53;;;;;;;2.70;2.50;;;17.00;59.30;;;;;;5033856;28;20456;-75
2023/11/26 09:53:22;;;;;;;2.80;2.60;;;17.30;59.70;;;;;;5033732;28;20485;-77
2023/11/26 09:55:49;;;;;;;3.00;2.80;;;17.50;59.20;;;;;;5034178;28;20886;-76
2023/11/26 09:58:17;;;;;;;4.17;3.07;;;17.70;59.60;;;;;;5034511;28;20475;-75
2023/11/26 10:00:45;;;;;;;2.77;2.50;;;18.00;59.80;;;;;;5035725;28;20481;-77
2023/11/26 10:03:13;;;;;;;3.87;2.90;;;18.20;59.80;;;;;;5025490;28;20475;-76
2023/11/26 10:05:43;;;;;;;2.97;2.50;;;18.40;60.00;;;;;;5036761;28;20534;-77
2023/11/26 10:08:27;;;;;;;3.17;2.87;;;18.60;60.30;;;;;;5034949;28;20505;-76
2023/11/26 10:10:55;;;;;;;3.27;2.60;;;18.60;60.40;;;;;;5034244;28;20552;-76
2023/11/26 10:13:24;;;;;;;3.60;3.30;;;18.70;60.80;;;;;;5014467;28;20468;-76
2023/11/26 10:15:53;;;;;;;6.90;4.40;;;18.70;60.80;;;;;;5014299;28;20460;-75
2023/11/26 10:18:21;;;;;;;5.13;4.53;;;18.60;61.10;;;;;;5014492;28;20978;-76
2023/11/26 10:20:54;;;;;;;7.40;6.20;;;18.50;61.30;;;;;;5029512;28;20476;-76
2023/11/26 10:23:25;;;;;;;9.10;6.77;;;18.30;61.50;;;;;;5021381;28;20428;-76
2023/11/26 10:25:53;;;;;;;10.53;7.67;;;18.20;61.80;;;;;;5025423;28;20472;-76
2023/11/26 10:28:21;;;;;;;9.27;7.67;;;18.10;62.10;;;;;;5029089;28;20468;-76
2023/11/26 10:30:49;;;;;;;12.40;8.00;;;18.00;62.40;;;;;;5028603;28;20479;-77
2023/11/26 10:33:17;;;;;;;12.10;8.00;;;18.00;62.50;;;;;;5033241;28;20529;-75
2023/11/26 10:35:47;;;;;;;11.47;8.33;;;17.90;62.50;;;;;;5032912;28;20710;-76
2023/11/26 10:38:16;;;;;;;11.73;8.80;;;17.80;62.80;;;;;;5029800;28;20436;-76
2023/11/26 10:40:45;;;;;;;13.63;9.87;;;17.80;63.00;;;;;;5025567;28;20486;-76
2023/11/26 10:43:13;;;;;;;13.10;9.93;;;17.70;63.10;;;;;;5023366;28;20519;-76
2023/11/26 10:45:42;;;;;;;14.13;10.37;;;17.80;63.60;;;;;;5019084;28;20471;-76
2023/11/26 10:48:12;;;;;;;14.70;10.40;;;17.80;63.60;;;;;;5019649;28;20501;-77
2023/11/26 10:50:46;;;;;;;15.40;10.50;;;17.80;63.40;;;;;;5024093;28;20438;-77
2023/11/26 10:53:26;;;;;;;14.77;10.47;;;17.80;63.60;;;;;;5023882;28;20472;-79
2023/11/26 10:55:56;;;;;;;12.60;10.33;;;17.80;63.30;;;;;;5031597;28;20443;-81
2023/11/26 10:58:28;;;;;;;16.97;11.47;;;17.80;63.20;;;;;;5035680;28;20490;-78
2023/11/26 11:00:58;;;;;;;14.63;10.07;;;17.70;63.30;;;;;;5024622;28;20491;-77
2023/11/26 11:03:27;;;;;;;16.20;11.30;;;17.70;63.40;;;;;;5021806;28;20464;-78
2023/11/26 11:05:56;;;;;;;14.40;10.47;;;17.70;63.60;;;;;;5023583;28;20452;-76
2023/11/26 11:08:28;;;;;;;15.80;10.60;;;17.60;63.60;;;;;;5022131;28;20469;-77
2023/11/26 11:11:01;;;;;;;14.23;10.10;;;17.60;63.60;;;;;;5028221;28;20455;-78
2023/11/26 11:13:29;;;;;;;17.03;10.80;;;17.60;63.60;;;;;;5025542;28;20463;-78
2023/11/26 11:15:58;;;;;;;15.03;10.73;;;17.60;63.70;;;;;;5024164;28;20444;-78
2023/11/26 11:18:43;;;;;;;13.50;9.97;;;17.60;63.60;;;;;;5034621;28;20447;-79
2023/11/26 11:21:12;;;;;;;13.97;10.20;;;17.50;63.80;;;;;;5034165;28;20550;-78
2023/11/26 11:23:42;;;;;;;11.93;8.83;;;17.60;63.60;;;;;;5021917;28;20475;-79
2023/11/26 11:26:11;;;;;;;15.07;9.77;;;17.50;63.50;;;;;;5024624;28;20462;-81
2023/11/26 11:28:40;;;;;;;14.03;9.40;;;17.50;63.40;;;;;;5025874;28;20500;-80
2023/11/26 11:31:09;;;;;;;12.27;9.30;;;17.50;63.40;;;;;;5027425;28;20475;-78
2023/11/26 11:33:36;;;;;;;12.20;9.10;;;17.50;63.40;;;;;;5029368;28;20479;-79
2023/11/26 11:36:04;;;;;;;14.57;9.80;;;17.50;63.40;;;;;;5028737;28;20447;-78
2023/11/26 11:39:04;;;;;;;14.60;9.27;;;17.50;63.20;;;;;;5022441;28;20539;-79
2023/11/26 11:41:32;;;;;;;11.83;8.57;;;17.50;63.40;;;;;;5026933;28;20459;-78
2023/11/26 11:44:27;;;;;;;10.90;8.17;;;17.50;63.20;;;;;;5030959;28;20942;-78
2023/11/26 11:46:55;;;;;;;11.83;8.70;;;17.40;63.20;;;;;;5033287;28;20432;-78
2023/11/26 11:49:25;;;;;;;10.13;8.03;;;17.40;63.10;;;;;;5025058;28;20529;-78
2023/11/26 11:51:54;;;;;;;12.37;8.33;;;17.40;63.00;;;;;;5026010;28;20468;-78
2023/11/26 11:55:00;;;;;;;11.47;8.40;;;17.40;63.10;;;;;;5022695;28;20469;-78
2023/11/26 11:57:28;;;;;;;11.70;8.50;;;17.40;63.90;;;;;;4971348;28;20450;-78
2023/11/26 11:59:59;;;;;;;11.17;8.20;;;17.40;63.00;;;;;;4972930;28;20492;-78
2023/11/26 12:02:27;;;;;;;10.27;7.57;;;17.40;63.00;;;;;;4999215;28;20472;-78
2023/11/26 12:04:56;;;;;;;16.43;7.70;;;17.30;62.90;;;;;;5025095;28;20515;-80
2023/11/26 12:07:30;;;;;;;7.10;3.20;;;17.30;63.60;;;;;;5044902;28;20443;-80
2023/11/26 12:10:01;;;;;;;13.33;3.53;;;16.10;59.30;;;;;;5036883;28;20435;-80
2023/11/26 12:12:29;;;;;;;5.63;2.37;;;15.00;56.80;;;;;;5028636;28;20479;-80
2023/11/26 12:14:58;;;;;;;6.33;2.23;;;13.70;58.90;;;;;;5034404;28;20467;-79
2023/11/26 12:17:26;;;;;;;5.47;2.40;;;13.00;61.40;;;;;;5031447;28;20445;-79
2023/11/26 12:19:55;;;;;;;5.43;2.00;;;13.40;65.50;;;;;;5037707;28;20494;-77
2023/11/26 12:22:24;;;;;;;6.53;2.40;;;14.00;63.30;;;;;;5029601;28;20468;-82
2023/11/26 12:24:52;;;;;;;5.97;2.47;;;14.50;61.60;;;;;;5029622;28;20475;-78
2023/11/26 12:27:23;;;;;;;5.80;2.80;;;14.80;60.20;;;;;;5036060;28;20486;-77
2023/11/26 12:29:51;;;;;;;4.30;2.07;;;15.00;59.40;;;;;;5035104;28;20513;-77
2023/11/26 12:32:25;;;;;;;4.10;2.27;;;15.10;58.60;;;;;;5029029;28;20467;-77
2023/11/26 12:34:55;;;;;;;7.90;2.20;;;15.20;58.40;;;;;;5035687;28;20513;-80
2023/11/26 12:37:24;;;;;;;7.00;1.80;;;15.30;57.90;;;;;;5030640;28;20455;-78
2023/11/26 12:39:52;;;;;;;8.13;2.10;;;15.30;57.60;;;;;;5040167;28;20543;-78
2023/11/26 12:42:22;;;;;;;4.10;2.20;;;15.30;57.50;;;;;;5030777;28;20472;-77
2023/11/26 12:44:50;;;;;;;10.43;2.50;;;15.20;56.90;;;;;;5033047;28;20462;-77
2023/11/26 12:47:18;;;;;;;11.00;2.33;;;15.20;57.20;;;;;;5040552;28;20456;-79
2023/11/26 12:49:56;;;;;;;5.07;2.23;;;15.30;56.60;;;;;;5041884;28;20463;-80
2023/11/26 12:52:25;;;;;;;8.07;2.10;;;15.20;56.70;;;;;;5039288;28;20486;-82